Aviation Digital Data Service (ADDS)

Output produced by METARs form (1848 UTC 27 July 2017)
found at http://aviationweather.gov/adds/metars/
 
KPGV 271724Z 2718/2818 22006KT P6SM SCT040 
     FM280600 19006KT P6SM VCSH SCT010 BKN040 
     FM281200 20005KT P6SM VCSH BKN100 AMD LTD TO CLD VIS AND WIND